Terminal Aerodrome Forecast
Issued by NWS

Home | Current Version | Previous Version | Graphics & Text | Print | Product List | Glossary On
Versions: 1 2 3 4 5 6 7 8 9 10 11 12 13
916
FTUS43 KICT 201721
TAFSLN
TAF
KSLN 201721Z 2018/2118 20015KT P6SM BKN120
     FM202000 25010KT P6SM SCT120
     FM210000 35007KT P6SM SKC
     FM211300 23006KT P6SM SKC=

USA.gov is the U.S. government's official web portal to all federal, state and local government web resources and services.